sensor_id;sensor_type;location;lat;lon;timestamp;temperature;humidity
13928;DHT22;7036;50.834;4.718;2023-04-01T00:01:34;18.50;60.10
13928;DHT22;7036;50.834;4.718;2023-04-01T00:04:03;18.50;60.10
13928;DHT22;7036;50.834;4.718;2023-04-01T00:06:29;18.50;60.10
13928;DHT22;7036;50.834;4.718;2023-04-01T00:08:57;18.50;60.30
13928;DHT22;7036;50.834;4.718;2023-04-01T00:11:25;18.50;60.20
13928;DHT22;7036;50.834;4.718;2023-04-01T00:13:53;18.50;60.40
13928;DHT22;7036;50.834;4.718;2023-04-01T00:16:20;18.50;60.20
13928;DHT22;7036;50.834;4.718;2023-04-01T00:18:47;18.50;60.20
13928;DHT22;7036;50.834;4.718;2023-04-01T00:21:14;18.50;60.20
13928;DHT22;7036;50.834;4.718;2023-04-01T00:23:42;18.50;60.40
13928;DHT22;7036;50.834;4.718;2023-04-01T00:26:11;18.40;60.30
13928;DHT22;7036;50.834;4.718;2023-04-01T00:28:38;18.40;60.10
13928;DHT22;7036;50.834;4.718;2023-04-01T00:31:05;18.40;60.10
13928;DHT22;7036;50.834;4.718;2023-04-01T00:33:35;18.40;60.30
13928;DHT22;7036;50.834;4.718;2023-04-01T00:36:12;18.40;60.20
13928;DHT22;7036;50.834;4.718;2023-04-01T00:38:37;18.40;60.20
13928;DHT22;7036;50.834;4.718;2023-04-01T00:41:04;18.40;60.20
13928;DHT22;7036;50.834;4.718;2023-04-01T00:43:31;18.40;60.20
13928;DHT22;7036;50.834;4.718;2023-04-01T00:45:58;18.40;60.40
13928;DHT22;7036;50.834;4.718;2023-04-01T00:48:32;18.40;60.40
13928;DHT22;7036;50.834;4.718;2023-04-01T00:51:11;18.40;60.20
13928;DHT22;7036;50.834;4.718;2023-04-01T00:53:41;18.40;60.20
13928;DHT22;7036;50.834;4.718;2023-04-01T00:56:15;18.30;60.40
13928;DHT22;7036;50.834;4.718;2023-04-01T00:58:46;18.30;60.30
13928;DHT22;7036;50.834;4.718;2023-04-01T01:01:10;18.30;60.40
13928;DHT22;7036;50.834;4.718;2023-04-01T01:03:38;18.30;60.50
13928;DHT22;7036;50.834;4.718;2023-04-01T01:06:10;18.30;60.40
13928;DHT22;7036;50.834;4.718;2023-04-01T01:08:47;18.30;59.70
13928;DHT22;7036;50.834;4.718;2023-04-01T01:11:11;18.30;59.90
13928;DHT22;7036;50.834;4.718;2023-04-01T01:13:46;18.30;60.40
13928;DHT22;7036;50.834;4.718;2023-04-01T01:16:12;18.30;60.40
13928;DHT22;7036;50.834;4.718;2023-04-01T01:18:47;18.30;60.60
13928;DHT22;7036;50.834;4.718;2023-04-01T01:26:44;18.20;60.50
13928;DHT22;7036;50.834;4.718;2023-04-01T01:32:28;18.20;60.70
13928;DHT22;7036;50.834;4.718;2023-04-01T01:35:22;18.20;60.60
13928;DHT22;7036;50.834;4.718;2023-04-01T01:37:49;18.20;60.60
13928;DHT22;7036;50.834;4.718;2023-04-01T01:40:15;18.20;60.70
13928;DHT22;7036;50.834;4.718;2023-04-01T01:42:44;18.10;60.70
13928;DHT22;7036;50.834;4.718;2023-04-01T01:45:09;18.20;60.60
13928;DHT22;7036;50.834;4.718;2023-04-01T01:47:36;18.20;60.70
13928;DHT22;7036;50.834;4.718;2023-04-01T01:50:04;18.20;60.70
13928;DHT22;7036;50.834;4.718;2023-04-01T01:52:32;18.20;60.70
13928;DHT22;7036;50.834;4.718;2023-04-01T01:54:58;18.20;60.60
13928;DHT22;7036;50.834;4.718;2023-04-01T01:57:27;18.20;60.60
13928;DHT22;7036;50.834;4.718;2023-04-01T01:59:55;18.10;60.60
13928;DHT22;7036;50.834;4.718;2023-04-01T02:02:21;18.10;60.70
13928;DHT22;7036;50.834;4.718;2023-04-01T02:04:48;18.10;60.60
13928;DHT22;7036;50.834;4.718;2023-04-01T02:07:27;18.10;60.90
13928;DHT22;7036;50.834;4.718;2023-04-01T02:09:43;18.10;60.60
13928;DHT22;7036;50.834;4.718;2023-04-01T02:12:12;18.10;60.30
13928;DHT22;7036;50.834;4.718;2023-04-01T02:14:53;18.10;60.60
13928;DHT22;7036;50.834;4.718;2023-04-01T02:17:18;18.10;60.60
13928;DHT22;7036;50.834;4.718;2023-04-01T02:19:56;18.10;60.30
13928;DHT22;7036;50.834;4.718;2023-04-01T02:22:24;18.10;60.60
13928;DHT22;7036;50.834;4.718;2023-04-01T02:24:50;18.10;60.60
13928;DHT22;7036;50.834;4.718;2023-04-01T02:27:18;18.10;60.80
13928;DHT22;7036;50.834;4.718;2023-04-01T02:29:45;18.10;60.60
13928;DHT22;7036;50.834;4.718;2023-04-01T02:32:12;18.10;60.60
13928;DHT22;7036;50.834;4.718;2023-04-01T02:34:41;18.10;60.80
13928;DHT22;7036;50.834;4.718;2023-04-01T02:37:08;18.10;60.60
13928;DHT22;7036;50.834;4.718;2023-04-01T02:39:35;18.10;60.60
13928;DHT22;7036;50.834;4.718;2023-04-01T02:42:02;18.10;60.60
13928;DHT22;7036;50.834;4.718;2023-04-01T02:44:30;18.10;61.10
13928;DHT22;7036;50.834;4.718;2023-04-01T02:46:58;18.10;60.60
13928;DHT22;7036;50.834;4.718;2023-04-01T02:49:25;18.10;60.60
13928;DHT22;7036;50.834;4.718;2023-04-01T02:51:52;18.10;60.60
13928;DHT22;7036;50.834;4.718;2023-04-01T02:54:19;18.10;60.60
13928;DHT22;7036;50.834;4.718;2023-04-01T02:56:47;18.10;60.60
13928;DHT22;7036;50.834;4.718;2023-04-01T02:59:14;18.10;60.50
13928;DHT22;7036;50.834;4.718;2023-04-01T03:01:42;18.10;60.70
13928;DHT22;7036;50.834;4.718;2023-04-01T03:04:10;18.10;60.60
13928;DHT22;7036;50.834;4.718;2023-04-01T03:06:37;18.00;60.80
13928;DHT22;7036;50.834;4.718;2023-04-01T03:09:05;18.00;60.80
13928;DHT22;7036;50.834;4.718;2023-04-01T03:11:33;18.00;60.50
13928;DHT22;7036;50.834;4.718;2023-04-01T03:14:01;18.00;60.80
13928;DHT22;7036;50.834;4.718;2023-04-01T03:16:28;18.00;60.60
13928;DHT22;7036;50.834;4.718;2023-04-01T03:18:56;18.00;60.60
13928;DHT22;7036;50.834;4.718;2023-04-01T03:21:23;18.00;60.60
13928;DHT22;7036;50.834;4.718;2023-04-01T03:23:50;18.00;60.60
13928;DHT22;7036;50.834;4.718;2023-04-01T03:26:17;18.00;60.60
13928;DHT22;7036;50.834;4.718;2023-04-01T03:28:44;18.00;60.60
13928;DHT22;7036;50.834;4.718;2023-04-01T03:31:11;18.00;60.50
13928;DHT22;7036;50.834;4.718;2023-04-01T03:33:38;18.00;60.60
13928;DHT22;7036;50.834;4.718;2023-04-01T03:36:06;18.00;61.10
13928;DHT22;7036;50.834;4.718;2023-04-01T03:38:34;18.00;60.60
13928;DHT22;7036;50.834;4.718;2023-04-01T03:41:02;18.00;61.10
13928;DHT22;7036;50.834;4.718;2023-04-01T03:43:29;18.00;60.40
13928;DHT22;7036;50.834;4.718;2023-04-01T03:45:57;18.00;60.70
13928;DHT22;7036;50.834;4.718;2023-04-01T03:48:24;18.00;60.60
13928;DHT22;7036;50.834;4.718;2023-04-01T03:50:51;18.00;60.60
13928;DHT22;7036;50.834;4.718;2023-04-01T03:53:19;18.00;60.80
13928;DHT22;7036;50.834;4.718;2023-04-01T03:55:46;18.00;60.60
13928;DHT22;7036;50.834;4.718;2023-04-01T03:58:14;18.00;60.10
13928;DHT22;7036;50.834;4.718;2023-04-01T04:00:41;18.00;60.60
13928;DHT22;7036;50.834;4.718;2023-04-01T04:03:08;18.00;60.60
13928;DHT22;7036;50.834;4.718;2023-04-01T04:05:35;17.90;60.50
13928;DHT22;7036;50.834;4.718;2023-04-01T04:08:04;18.00;60.80
13928;DHT22;7036;50.834;4.718;2023-04-01T04:10:30;17.90;60.60
13928;DHT22;7036;50.834;4.718;2023-04-01T04:12:57;18.00;60.60
13928;DHT22;7036;50.834;4.718;2023-04-01T04:15:25;17.90;60.50
13928;DHT22;7036;50.834;4.718;2023-04-01T04:17:53;18.00;60.70
13928;DHT22;7036;50.834;4.718;2023-04-01T04:20:20;18.00;60.60
13928;DHT22;7036;50.834;4.718;2023-04-01T04:22:48;17.90;60.50
13928;DHT22;7036;50.834;4.718;2023-04-01T04:25:15;17.90;60.60
13928;DHT22;7036;50.834;4.718;2023-04-01T04:27:43;17.90;61.00
13928;DHT22;7036;50.834;4.718;2023-04-01T04:30:11;18.00;60.80
13928;DHT22;7036;50.834;4.718;2023-04-01T04:32:38;17.90;60.60
13928;DHT22;7036;50.834;4.718;2023-04-01T04:35:05;17.90;60.50
13928;DHT22;7036;50.834;4.718;2023-04-01T04:37:32;17.90;60.40
13928;DHT22;7036;50.834;4.718;2023-04-01T04:40:00;17.90;60.60
13928;DHT22;7036;50.834;4.718;2023-04-01T04:42:28;17.90;60.50
13928;DHT22;7036;50.834;4.718;2023-04-01T04:44:56;17.90;60.70
13928;DHT22;7036;50.834;4.718;2023-04-01T04:47:24;17.90;60.70
13928;DHT22;7036;50.834;4.718;2023-04-01T04:49:52;17.90;60.70
13928;DHT22;7036;50.834;4.718;2023-04-01T04:52:20;17.90;60.60
13928;DHT22;7036;50.834;4.718;2023-04-01T04:54:48;17.90;60.70
13928;DHT22;7036;50.834;4.718;2023-04-01T04:57:16;17.90;60.80
13928;DHT22;7036;50.834;4.718;2023-04-01T04:59:43;17.90;60.70
13928;DHT22;7036;50.834;4.718;2023-04-01T05:02:11;17.90;61.30
13928;DHT22;7036;50.834;4.718;2023-04-01T05:04:39;17.90;60.80
13928;DHT22;7036;50.834;4.718;2023-04-01T05:07:05;17.90;60.60
13928;DHT22;7036;50.834;4.718;2023-04-01T05:09:32;17.90;60.60
13928;DHT22;7036;50.834;4.718;2023-04-01T05:12:00;17.90;60.60
13928;DHT22;7036;50.834;4.718;2023-04-01T05:14:28;17.90;60.70
13928;DHT22;7036;50.834;4.718;2023-04-01T05:16:56;17.90;60.60
13928;DHT22;7036;50.834;4.718;2023-04-01T05:19:22;17.90;60.60
13928;DHT22;7036;50.834;4.718;2023-04-01T05:21:50;17.90;60.50
13928;DHT22;7036;50.834;4.718;2023-04-01T05:24:18;17.80;60.70
13928;DHT22;7036;50.834;4.718;2023-04-01T05:26:45;17.80;60.60
13928;DHT22;7036;50.834;4.718;2023-04-01T05:29:13;17.80;60.80
13928;DHT22;7036;50.834;4.718;2023-04-01T05:31:40;17.80;60.60
13928;DHT22;7036;50.834;4.718;2023-04-01T05:34:07;17.80;60.70
13928;DHT22;7036;50.834;4.718;2023-04-01T05:36:36;17.80;60.00
13928;DHT22;7036;50.834;4.718;2023-04-01T05:39:02;17.80;60.60
13928;DHT22;7036;50.834;4.718;2023-04-01T05:41:30;17.80;60.80
13928;DHT22;7036;50.834;4.718;2023-04-01T05:43:57;17.80;60.60
13928;DHT22;7036;50.834;4.718;2023-04-01T05:46:25;17.80;60.70
13928;DHT22;7036;50.834;4.718;2023-04-01T05:48:52;17.80;60.70
13928;DHT22;7036;50.834;4.718;2023-04-01T05:51:19;17.80;60.70
13928;DHT22;7036;50.834;4.718;2023-04-01T05:53:47;17.80;60.80
13928;DHT22;7036;50.834;4.718;2023-04-01T05:56:14;17.80;60.70
13928;DHT22;7036;50.834;4.718;2023-04-01T05:58:41;17.80;60.60
13928;DHT22;7036;50.834;4.718;2023-04-01T06:01:10;17.80;60.70
13928;DHT22;7036;50.834;4.718;2023-04-01T06:03:36;17.80;60.70
13928;DHT22;7036;50.834;4.718;2023-04-01T06:06:03;17.80;60.00
13928;DHT22;7036;50.834;4.718;2023-04-01T06:08:31;17.80;60.80
13928;DHT22;7036;50.834;4.718;2023-04-01T06:11:04;17.70;60.60
13928;DHT22;7036;50.834;4.718;2023-04-01T06:16:54;17.80;60.70
13928;DHT22;7036;50.834;4.718;2023-04-01T06:30:43;17.70;60.70
13928;DHT22;7036;50.834;4.718;2023-04-01T06:36:13;17.70;60.70
13928;DHT22;7036;50.834;4.718;2023-04-01T06:44:14;17.70;60.70
13928;DHT22;7036;50.834;4.718;2023-04-01T06:46:47;17.70;60.70
13928;DHT22;7036;50.834;4.718;2023-04-01T06:49:35;17.70;60.70
13928;DHT22;7036;50.834;4.718;2023-04-01T06:54:32;17.70;60.70
13928;DHT22;7036;50.834;4.718;2023-04-01T06:58:01;17.70;60.80
13928;DHT22;7036;50.834;4.718;2023-04-01T06:59:36;17.70;60.80
13928;DHT22;7036;50.834;4.718;2023-04-01T07:04:40;17.70;60.80
13928;DHT22;7036;50.834;4.718;2023-04-01T07:09:55;17.60;60.90
13928;DHT22;7036;50.834;4.718;2023-04-01T07:14:58;17.60;60.80
13928;DHT22;7036;50.834;4.718;2023-04-01T07:17:30;17.70;60.80
13928;DHT22;7036;50.834;4.718;2023-04-01T07:20:32;17.70;60.90
13928;DHT22;7036;50.834;4.718;2023-04-01T07:25:02;17.70;60.80
13928;DHT22;7036;50.834;4.718;2023-04-01T07:27:28;17.70;60.80
13928;DHT22;7036;50.834;4.718;2023-04-01T07:29:56;17.60;60.90
13928;DHT22;7036;50.834;4.718;2023-04-01T07:32:47;17.60;60.80
13928;DHT22;7036;50.834;4.718;2023-04-01T07:38:01;17.70;60.90
13928;DHT22;7036;50.834;4.718;2023-04-01T07:40:32;17.70;60.90
13928;DHT22;7036;50.834;4.718;2023-04-01T07:51:50;18.00;60.70
13928;DHT22;7036;50.834;4.718;2023-04-01T07:54:32;18.00;60.60
13928;DHT22;7036;50.834;4.718;2023-04-01T08:14:11;18.40;60.90
13928;DHT22;7036;50.834;4.718;2023-04-01T08:15:57;18.30;60.70
13928;DHT22;7036;50.834;4.718;2023-04-01T08:21:43;18.30;60.70
13928;DHT22;7036;50.834;4.718;2023-04-01T08:24:22;18.30;60.70
13928;DHT22;7036;50.834;4.718;2023-04-01T08:26:46;18.30;61.50
13928;DHT22;7036;50.834;4.718;2023-04-01T08:29:19;18.30;60.90
13928;DHT22;7036;50.834;4.718;2023-04-01T08:32:08;18.40;61.50
13928;DHT22;7036;50.834;4.718;2023-04-01T08:34:37;18.40;60.90
13928;DHT22;7036;50.834;4.718;2023-04-01T08:37:17;18.40;60.90
13928;DHT22;7036;50.834;4.718;2023-04-01T08:39:54;18.40;61.50
13928;DHT22;7036;50.834;4.718;2023-04-01T08:50:36;18.40;60.80
13928;DHT22;7036;50.834;4.718;2023-04-01T08:56:14;18.50;61.10
13928;DHT22;7036;50.834;4.718;2023-04-01T09:02:00;18.50;60.90
13928;DHT22;7036;50.834;4.718;2023-04-01T09:12:31;18.60;60.50
13928;DHT22;7036;50.834;4.718;2023-04-01T09:21:01;18.60;61.00
13928;DHT22;7036;50.834;4.718;2023-04-01T09:23:40;18.70;60.90
13928;DHT22;7036;50.834;4.718;2023-04-01T09:32:09;18.60;60.90
13928;DHT22;7036;50.834;4.718;2023-04-01T09:34:52;18.60;61.00
13928;DHT22;7036;50.834;4.718;2023-04-01T09:40:18;18.60;61.70
13928;DHT22;7036;50.834;4.718;2023-04-01T09:43:06;18.60;61.70
13928;DHT22;7036;50.834;4.718;2023-04-01T10:16:08;18.90;62.10
13928;DHT22;7036;50.834;4.718;2023-04-01T10:24:41;18.90;62.10
13928;DHT22;7036;50.834;4.718;2023-04-01T10:27:15;18.90;62.10
13928;DHT22;7036;50.834;4.718;2023-04-01T10:29:48;18.90;62.20
13928;DHT22;7036;50.834;4.718;2023-04-01T10:40:45;18.90;62.00
13928;DHT22;7036;50.834;4.718;2023-04-01T10:56:45;19.10;61.90
13928;DHT22;7036;50.834;4.718;2023-04-01T10:59:27;19.10;61.70
13928;DHT22;7036;50.834;4.718;2023-04-01T11:07:51;19.10;61.60
13928;DHT22;7036;50.834;4.718;2023-04-01T11:13:21;19.10;61.60
13928;DHT22;7036;50.834;4.718;2023-04-01T11:18:53;19.10;61.50
13928;DHT22;7036;50.834;4.718;2023-04-01T11:32:42;19.20;61.40
13928;DHT22;7036;50.834;4.718;2023-04-01T11:40:42;19.10;61.40
13928;DHT22;7036;50.834;4.718;2023-04-01T11:43:22;19.10;61.20
13928;DHT22;7036;50.834;4.718;2023-04-01T11:45:51;19.10;61.20
13928;DHT22;7036;50.834;4.718;2023-04-01T11:51:25;19.00;61.30
13928;DHT22;7036;50.834;4.718;2023-04-01T11:54:12;19.00;61.10
13928;DHT22;7036;50.834;4.718;2023-04-01T12:02:24;19.00;61.10
13928;DHT22;7036;50.834;4.718;2023-04-01T12:05:18;18.90;61.00
13928;DHT22;7036;50.834;4.718;2023-04-01T12:10:21;18.90;60.90
13928;DHT22;7036;50.834;4.718;2023-04-01T12:18:33;18.90;61.10
13928;DHT22;7036;50.834;4.718;2023-04-01T12:21:07;18.90;61.40
13928;DHT22;7036;50.834;4.718;2023-04-01T12:29:34;18.90;62.70
13928;DHT22;7036;50.834;4.718;2023-04-01T12:35:00;18.90;63.00
13928;DHT22;7036;50.834;4.718;2023-04-01T12:37:39;18.90;63.00
13928;DHT22;7036;50.834;4.718;2023-04-01T12:42:56;18.90;62.50
13928;DHT22;7036;50.834;4.718;2023-04-01T12:45:28;18.90;62.80
13928;DHT22;7036;50.834;4.718;2023-04-01T12:55:52;18.90;63.00
13928;DHT22;7036;50.834;4.718;2023-04-01T13:01:15;18.90;63.20
13928;DHT22;7036;50.834;4.718;2023-04-01T13:03:53;18.90;63.20
13928;DHT22;7036;50.834;4.718;2023-04-01T13:06:24;18.90;63.20
13928;DHT22;7036;50.834;4.718;2023-04-01T13:11:53;19.00;63.30
13928;DHT22;7036;50.834;4.718;2023-04-01T13:19:54;19.00;63.50
13928;DHT22;7036;50.834;4.718;2023-04-01T13:22:41;19.00;63.90
13928;DHT22;7036;50.834;4.718;2023-04-01T13:28:01;19.00;63.30
13928;DHT22;7036;50.834;4.718;2023-04-01T13:30:55;19.00;63.60
13928;DHT22;7036;50.834;4.718;2023-04-01T13:33:25;19.00;63.50
13928;DHT22;7036;50.834;4.718;2023-04-01T13:39:27;19.00;63.40
13928;DHT22;7036;50.834;4.718;2023-04-01T13:44:40;19.10;63.40
13928;DHT22;7036;50.834;4.718;2023-04-01T13:47:53;19.10;63.40
13928;DHT22;7036;50.834;4.718;2023-04-01T13:49:58;19.10;63.30
13928;DHT22;7036;50.834;4.718;2023-04-01T13:52:40;19.20;63.20
13928;DHT22;7036;50.834;4.718;2023-04-01T13:58:00;19.20;63.00
13928;DHT22;7036;50.834;4.718;2023-04-01T14:00:38;19.20;62.90
13928;DHT22;7036;50.834;4.718;2023-04-01T14:03:14;19.20;62.80
13928;DHT22;7036;50.834;4.718;2023-04-01T14:08:26;19.30;62.80
13928;DHT22;7036;50.834;4.718;2023-04-01T14:11:10;19.20;62.70
13928;DHT22;7036;50.834;4.718;2023-04-01T14:16:44;19.20;62.60
13928;DHT22;7036;50.834;4.718;2023-04-01T14:24:36;19.30;62.40
13928;DHT22;7036;50.834;4.718;2023-04-01T14:27:19;19.30;62.50
13928;DHT22;7036;50.834;4.718;2023-04-01T14:35:22;19.30;62.30
13928;DHT22;7036;50.834;4.718;2023-04-01T14:43:35;19.30;62.30
13928;DHT22;7036;50.834;4.718;2023-04-01T14:56:44;19.40;62.00
13928;DHT22;7036;50.834;4.718;2023-04-01T14:59:13;19.40;61.90
13928;DHT22;7036;50.834;4.718;2023-04-01T15:01:50;19.40;61.30
13928;DHT22;7036;50.834;4.718;2023-04-01T15:07:16;19.40;61.80
13928;DHT22;7036;50.834;4.718;2023-04-01T15:09:31;19.40;61.80
13928;DHT22;7036;50.834;4.718;2023-04-01T15:12:07;19.40;61.80
13928;DHT22;7036;50.834;4.718;2023-04-01T15:23:23;19.40;61.70
13928;DHT22;7036;50.834;4.718;2023-04-01T15:25:10;19.40;62.00
13928;DHT22;7036;50.834;4.718;2023-04-01T15:27:55;19.40;62.00
13928;DHT22;7036;50.834;4.718;2023-04-01T15:33:19;19.40;61.70
13928;DHT22;7036;50.834;4.718;2023-04-01T15:41:15;19.50;62.40
13928;DHT22;7036;50.834;4.718;2023-04-01T15:46:19;19.40;62.40
13928;DHT22;7036;50.834;4.718;2023-04-01T15:51:49;19.50;62.40
13928;DHT22;7036;50.834;4.718;2023-04-01T15:54:20;19.40;62.40
13928;DHT22;7036;50.834;4.718;2023-04-01T15:59:37;19.40;62.50
13928;DHT22;7036;50.834;4.718;2023-04-01T16:04:40;19.40;62.50
13928;DHT22;7036;50.834;4.718;2023-04-01T16:09:48;19.30;62.60
13928;DHT22;7036;50.834;4.718;2023-04-01T16:14:43;19.30;62.80
13928;DHT22;7036;50.834;4.718;2023-04-01T16:17:16;19.30;63.00
13928;DHT22;7036;50.834;4.718;2023-04-01T16:22:37;19.30;63.00
13928;DHT22;7036;50.834;4.718;2023-04-01T16:25:25;19.30;63.00
13928;DHT22;7036;50.834;4.718;2023-04-01T16:31:02;19.30;63.30
13928;DHT22;7036;50.834;4.718;2023-04-01T16:39:22;19.20;63.50
13928;DHT22;7036;50.834;4.718;2023-04-01T16:44:26;19.20;63.70
13928;DHT22;7036;50.834;4.718;2023-04-01T16:46:59;19.20;63.70
13928;DHT22;7036;50.834;4.718;2023-04-01T16:49:24;19.10;63.70
13928;DHT22;7036;50.834;4.718;2023-04-01T16:51:54;19.10;63.70
13928;DHT22;7036;50.834;4.718;2023-04-01T17:02:20;19.10;63.50
13928;DHT22;7036;50.834;4.718;2023-04-01T17:24:26;18.90;63.50
13928;DHT22;7036;50.834;4.718;2023-04-01T17:26:54;18.90;63.60
13928;DHT22;7036;50.834;4.718;2023-04-01T17:32:48;18.90;63.60
13928;DHT22;7036;50.834;4.718;2023-04-01T17:35:13;18.90;63.50
13928;DHT22;7036;50.834;4.718;2023-04-01T17:58:45;18.80;63.60
13928;DHT22;7036;50.834;4.718;2023-04-01T18:01:20;18.80;63.60
13928;DHT22;7036;50.834;4.718;2023-04-01T18:09:17;18.80;63.60
13928;DHT22;7036;50.834;4.718;2023-04-01T18:11:48;18.80;63.90
13928;DHT22;7036;50.834;4.718;2023-04-01T18:22:29;18.80;63.60
13928;DHT22;7036;50.834;4.718;2023-04-01T18:27:47;19.00;63.70
13928;DHT22;7036;50.834;4.718;2023-04-01T18:30:13;19.00;63.60
13928;DHT22;7036;50.834;4.718;2023-04-01T18:33:03;19.10;63.70
13928;DHT22;7036;50.834;4.718;2023-04-01T18:35:54;19.10;63.50
13928;DHT22;7036;50.834;4.718;2023-04-01T18:38:31;19.20;63.40
13928;DHT22;7036;50.834;4.718;2023-04-01T18:46:39;19.20;63.20
13928;DHT22;7036;50.834;4.718;2023-04-01T18:49:20;19.20;63.20
13928;DHT22;7036;50.834;4.718;2023-04-01T18:51:53;19.20;63.10
13928;DHT22;7036;50.834;4.718;2023-04-01T18:54:39;19.30;63.10
13928;DHT22;7036;50.834;4.718;2023-04-01T18:57:21;19.30;63.10
13928;DHT22;7036;50.834;4.718;2023-04-01T18:59:40;19.30;63.10
13928;DHT22;7036;50.834;4.718;2023-04-01T19:05:31;19.30;63.00
13928;DHT22;7036;50.834;4.718;2023-04-01T19:09:51;19.30;63.00
13928;DHT22;7036;50.834;4.718;2023-04-01T19:12:34;19.30;63.10
13928;DHT22;7036;50.834;4.718;2023-04-01T19:20:49;19.20;63.80
13928;DHT22;7036;50.834;4.718;2023-04-01T19:26:04;19.20;63.00
13928;DHT22;7036;50.834;4.718;2023-04-01T19:37:08;19.10;63.10
13928;DHT22;7036;50.834;4.718;2023-04-01T19:42:42;19.10;63.10
13928;DHT22;7036;50.834;4.718;2023-04-01T19:45:21;19.10;63.10
13928;DHT22;7036;50.834;4.718;2023-04-01T19:52:44;19.10;63.10
13928;DHT22;7036;50.834;4.718;2023-04-01T20:00:50;19.10;63.10
13928;DHT22;7036;50.834;4.718;2023-04-01T20:06:24;19.00;63.10
13928;DHT22;7036;50.834;4.718;2023-04-01T20:16:16;19.00;63.30
13928;DHT22;7036;50.834;4.718;2023-04-01T20:18:56;19.00;63.10
13928;DHT22;7036;50.834;4.718;2023-04-01T20:21:35;19.00;63.20
13928;DHT22;7036;50.834;4.718;2023-04-01T20:26:47;19.00;63.30
13928;DHT22;7036;50.834;4.718;2023-04-01T20:29:34;18.90;63.10
13928;DHT22;7036;50.834;4.718;2023-04-01T20:45:28;18.90;63.20
13928;DHT22;7036;50.834;4.718;2023-04-01T20:50:59;18.90;63.20
13928;DHT22;7036;50.834;4.718;2023-04-01T20:58:37;18.80;63.30
13928;DHT22;7036;50.834;4.718;2023-04-01T21:04:22;18.80;63.40
13928;DHT22;7036;50.834;4.718;2023-04-01T21:12:35;18.70;63.40
13928;DHT22;7036;50.834;4.718;2023-04-01T21:18:06;18.70;63.30
13928;DHT22;7036;50.834;4.718;2023-04-01T21:23:30;18.70;63.20
13928;DHT22;7036;50.834;4.718;2023-04-01T21:26:05;18.70;63.20
13928;DHT22;7036;50.834;4.718;2023-04-01T21:31:15;18.70;63.30
13928;DHT22;7036;50.834;4.718;2023-04-01T21:36:52;18.70;63.20
13928;DHT22;7036;50.834;4.718;2023-04-01T21:45:03;18.60;63.20
13928;DHT22;7036;50.834;4.718;2023-04-01T21:48:06;18.60;63.10
13928;DHT22;7036;50.834;4.718;2023-04-01T22:02:12;18.60;63.00
13928;DHT22;7036;50.834;4.718;2023-04-01T22:05:10;18.60;63.00
13928;DHT22;7036;50.834;4.718;2023-04-01T22:07:52;18.60;63.20
13928;DHT22;7036;50.834;4.718;2023-04-01T22:10:24;18.60;63.00
13928;DHT22;7036;50.834;4.718;2023-04-01T22:12:51;18.60;63.00
13928;DHT22;7036;50.834;4.718;2023-04-01T22:15:27;18.60;63.00
13928;DHT22;7036;50.834;4.718;2023-04-01T22:20:31;18.60;62.90
13928;DHT22;7036;50.834;4.718;2023-04-01T22:23:11;18.60;63.00
13928;DHT22;7036;50.834;4.718;2023-04-01T22:25:42;18.60;63.00
13928;DHT22;7036;50.834;4.718;2023-04-01T22:28:20;18.60;62.90
13928;DHT22;7036;50.834;4.718;2023-04-01T22:30:51;18.60;62.80
13928;DHT22;7036;50.834;4.718;2023-04-01T22:36:06;18.50;62.90
13928;DHT22;7036;50.834;4.718;2023-04-01T22:38:51;18.50;62.90
13928;DHT22;7036;50.834;4.718;2023-04-01T22:43:43;18.50;62.80
13928;DHT22;7036;50.834;4.718;2023-04-01T22:46:29;18.50;62.90
13928;DHT22;7036;50.834;4.718;2023-04-01T22:49:00;18.50;62.80
13928;DHT22;7036;50.834;4.718;2023-04-01T22:54:32;18.50;62.70
13928;DHT22;7036;50.834;4.718;2023-04-01T22:57:03;18.50;62.80
13928;DHT22;7036;50.834;4.718;2023-04-01T23:02:00;18.50;62.90
13928;DHT22;7036;50.834;4.718;2023-04-01T23:04:31;18.50;62.70
13928;DHT22;7036;50.834;4.718;2023-04-01T23:06:56;18.40;62.80
13928;DHT22;7036;50.834;4.718;2023-04-01T23:09:33;18.40;62.70
13928;DHT22;7036;50.834;4.718;2023-04-01T23:12:10;18.50;62.90
13928;DHT22;7036;50.834;4.718;2023-04-01T23:14:58;18.40;62.70
13928;DHT22;7036;50.834;4.718;2023-04-01T23:23:00;18.40;62.70
13928;DHT22;7036;50.834;4.718;2023-04-01T23:25:30;18.40;63.40
13928;DHT22;7036;50.834;4.718;2023-04-01T23:35:56;18.40;62.70
13928;DHT22;7036;50.834;4.718;2023-04-01T23:38:19;18.40;62.70
13928;DHT22;7036;50.834;4.718;2023-04-01T23:40:49;18.40;62.50
13928;DHT22;7036;50.834;4.718;2023-04-01T23:43:28;18.40;62.50
13928;DHT22;7036;50.834;4.718;2023-04-01T23:45:55;18.40;62.40
13928;DHT22;7036;50.834;4.718;2023-04-01T23:48:24;18.40;62.60
13928;DHT22;7036;50.834;4.718;2023-04-01T23:50:49;18.40;62.60
13928;DHT22;7036;50.834;4.718;2023-04-01T23:53:20;18.40;62.60
13928;DHT22;7036;50.834;4.718;2023-04-01T23:55:46;18.40;62.60
13928;DHT22;7036;50.834;4.718;2023-04-01T23:58:26;18.40;62.60
